Terminal Aerodrome Forecast
Issued by NWS Bismarck, ND

Home | Current Version | Previous Version | Graphics & Text | Print | Product List | Glossary On
Versions: 1 2 3 4 5 6 7 8 9 10 11 12 13 14 15 16 17 18 19 20 21 22 23 24
000
FTUS43 KBIS 251900 AAA
TAFISN
TAF AMD
KISN 251952Z 2520/2618 27014G20KT P6SM SKC
     FM260100 26010KT P6SM SKC
     FM260600 24005KT P6SM SCT035 SCT070
     FM261400 28017KT P6SM BKN035 BKN070=

USA.gov is the U.S. government's official web portal to all federal, state and local government web resources and services.